Time;durP1;ratioP1;P1;durP2;ratioP2;P2;SDS_P1;SDS_P2;PMS_P1;PMS_P2;Temp;Humidity;BMP_temperature;BMP_pressure;BME280_temperature;BME280_humidity;BME280_pressure;Samples;Min_cycle;Max_cycle;Signal;HPM_P1;HPM_P2
2023/10/27 00:01:43;;;;;;;;;;;;;;;20.57;60.79;98998.44;5040904;28;6645;-79
2023/10/27 00:04:09;;;;;;;;;;;;;;;20.56;60.55;99006.34;5039767;28;2286;-78
2023/10/27 00:06:36;;;;;;;;;;;;;;;20.56;60.66;98994.09;5041910;28;2278;-78
2023/10/27 00:09:03;;;;;;;;;;;;;;;20.54;60.96;98994.06;5040399;28;2366;-78
2023/10/27 00:11:29;;;;;;;;;;;;;;;20.54;60.74;98991.19;5020280;28;2275;-79
2023/10/27 00:13:56;;;;;;;;;;;;;;;20.55;60.74;98993.38;5041759;28;2242;-78
2023/10/27 00:16:22;;;;;;;;;;;;;;;20.56;60.62;98994.09;5025838;28;2406;-78
2023/10/27 00:18:49;;;;;;;;;;;;;;;20.53;60.86;98995.50;5043099;28;2293;-78
2023/10/27 00:21:15;;;;;;;;;;;;;;;20.49;60.86;98996.88;5038773;28;2355;-78
2023/10/27 00:23:42;;;;;;;;;;;;;;;20.50;60.69;98992.59;5040962;28;2214;-78
2023/10/27 00:26:08;;;;;;;;;;;;;;;20.52;60.93;98989.00;5043015;28;2047;-78
2023/10/27 00:28:35;;;;;;;;;;;;;;;20.53;60.71;98986.88;5042408;28;2257;-78
2023/10/27 00:31:01;;;;;;;;;;;;;;;20.50;60.83;98986.81;5038933;28;6246;-78
2023/10/27 00:33:28;;;;;;;;;;;;;;;20.53;60.52;98973.22;5041744;28;2303;-78
2023/10/27 00:35:55;;;;;;;;;;;;;;;20.51;60.63;98965.28;5025420;28;2368;-78
2023/10/27 00:38:21;;;;;;;;;;;;;;;20.51;60.71;98964.56;5042410;28;2291;-78
2023/10/27 00:40:48;;;;;;;;;;;;;;;20.54;60.51;98965.31;5039221;28;2300;-78
2023/10/27 00:43:16;;;;;;;;;;;;;;;20.53;60.53;98955.25;5022365;28;2443;-78
2023/10/27 00:45:44;;;;;;;;;;;;;;;20.57;60.74;98949.56;5038836;28;2375;-78
2023/10/27 00:48:10;;;;;;;;;;;;;;;20.55;60.73;98958.13;5024096;28;2228;-78
2023/10/27 00:50:37;;;;;;;;;;;;;;;20.49;60.64;98953.00;5024112;28;2094;-78
2023/10/27 00:53:03;;;;;;;;;;;;;;;20.49;60.48;98945.09;5037806;28;2270;-79
2023/10/27 00:55:29;;;;;;;;;;;;;;;20.50;60.58;98940.81;5041570;28;2313;-78
2023/10/27 00:57:56;;;;;;;;;;;;;;;20.49;60.79;98944.41;5038815;28;2302;-78
2023/10/27 01:00:22;;;;;;;;;;;;;;;20.47;60.54;98942.19;5022649;28;6140;-78
2023/10/27 01:02:49;;;;;;;;;;;;;;;20.54;60.54;98945.19;5022053;28;2353;-78
2023/10/27 01:05:15;;;;;;;;;;;;;;;20.48;60.65;98949.41;5041974;28;2269;-78
2023/10/27 01:07:42;;;;;;;;;;;;;;;20.47;60.77;98941.47;5041514;28;2438;-78
2023/10/27 01:10:08;;;;;;;;;;;;;;;20.51;60.46;98938.69;5040707;28;1968;-79
2023/10/27 01:12:34;;;;;;;;;;;;;;;20.44;60.67;98943.59;5039797;28;2282;-78
2023/10/27 01:15:01;;;;;;;;;;;;;;;20.48;60.80;98943.66;5038579;28;2362;-78
2023/10/27 01:17:27;;;;;;;;;;;;;;;20.42;60.72;98946.44;5041446;28;2321;-78
2023/10/27 01:19:54;;;;;;;;;;;;;;;20.44;60.85;98934.25;5039997;28;2303;-79
2023/10/27 01:22:20;;;;;;;;;;;;;;;20.42;60.94;98943.56;5024294;28;2249;-79
2023/10/27 01:24:48;;;;;;;;;;;;;;;20.44;60.74;98943.59;5021631;28;2273;-78
2023/10/27 01:27:15;;;;;;;;;;;;;;;20.42;60.87;98943.56;5021219;28;2307;-81
2023/10/27 01:29:41;;;;;;;;;;;;;;;20.40;60.88;98937.78;5018682;28;2244;-78
2023/10/27 01:32:08;;;;;;;;;;;;;;;20.44;60.93;98934.97;5020926;28;6209;-78
2023/10/27 01:34:35;;;;;;;;;;;;;;;20.42;60.76;98923.44;5038194;28;2262;-78
2023/10/27 01:37:01;;;;;;;;;;;;;;;20.44;60.65;98923.47;5039963;28;2290;-78
2023/10/27 01:39:28;;;;;;;;;;;;;;;20.41;60.79;98927.75;5022529;28;2177;-78
2023/10/27 01:41:54;;;;;;;;;;;;;;;20.41;60.79;98916.25;5023913;28;1602;-78
2023/10/27 01:44:21;;;;;;;;;;;;;;;20.47;60.59;98913.47;5039491;28;2301;-78
2023/10/27 01:46:47;;;;;;;;;;;;;;;20.42;60.92;98906.19;5038225;28;2357;-78
2023/10/27 01:49:14;;;;;;;;;;;;;;;20.37;61.04;98919.06;5039361;28;2560;-78
2023/10/27 01:51:40;;;;;;;;;;;;;;;20.41;60.85;98912.63;5040697;28;2302;-78
2023/10/27 01:54:07;;;;;;;;;;;;;;;20.40;60.63;98903.28;5039615;28;2552;-80
2023/10/27 01:56:34;;;;;;;;;;;;;;;20.43;60.67;98913.41;5040305;28;2369;-78
2023/10/27 01:59:00;;;;;;;;;;;;;;;20.39;60.75;98907.59;5023387;28;2379;-78
2023/10/27 02:01:27;;;;;;;;;;;;;;;20.40;60.69;98909.03;5020112;28;6212;-79
2023/10/27 02:03:53;;;;;;;;;;;;;;;20.46;60.73;98912.00;5021982;28;2256;-80
2023/10/27 02:06:24;;;;;;;;;;;;;;;20.40;60.76;98914.78;5038965;28;2247;-80
2023/10/27 02:08:50;;;;;;;;;;;;;;;20.42;60.67;98906.19;5039603;28;1657;-80
2023/10/27 02:11:16;;;;;;;;;;;;;;;20.38;60.68;98903.25;5023683;28;2350;-80
2023/10/27 02:13:43;;;;;;;;;;;;;;;20.36;60.65;98908.97;5039544;28;2345;-80
2023/10/27 02:16:10;;;;;;;;;;;;;;;20.39;60.70;98909.75;5028908;28;2015;-80
2023/10/27 02:18:36;;;;;;;;;;;;;;;20.38;60.73;98916.91;5040294;28;2446;-80
2023/10/27 02:21:03;;;;;;;;;;;;;;;20.35;60.61;98901.78;5038919;28;2310;-80
2023/10/27 02:23:31;;;;;;;;;;;;;;;20.40;60.85;98914.78;5022202;28;2276;-80
2023/10/27 02:25:57;;;;;;;;;;;;;;;20.39;60.71;98912.63;5040811;28;2222;-80
2023/10/27 02:28:24;;;;;;;;;;;;;;;20.38;60.79;98917.63;5039717;28;2329;-80
2023/10/27 02:30:50;;;;;;;;;;;;;;;20.40;60.83;98923.41;5042057;28;6191;-80
2023/10/27 02:33:17;;;;;;;;;;;;;;;20.36;60.65;98926.22;5021807;28;2334;-81
2023/10/27 02:35:43;;;;;;;;;;;;;;;20.37;60.91;98919.06;5023038;28;2375;-80
2023/10/27 02:38:09;;;;;;;;;;;;;;;20.32;61.11;98920.44;5023461;28;1654;-80
2023/10/27 02:40:36;;;;;;;;;;;;;;;20.31;61.00;98918.97;5020138;28;2352;-79
2023/10/27 02:43:05;;;;;;;;;;;;;;;20.32;61.00;98920.44;5021727;28;2303;-80
2023/10/27 02:45:31;;;;;;;;;;;;;;;20.33;60.93;98933.38;5021336;28;2342;-79
2023/10/27 02:47:58;;;;;;;;;;;;;;;20.35;60.92;98933.41;5024400;28;1601;-80
2023/10/27 02:50:24;;;;;;;;;;;;;;;20.36;60.89;98931.25;5020848;28;2367;-80
2023/10/27 02:52:51;;;;;;;;;;;;;;;20.36;60.71;98931.97;5023311;28;2763;-80
2023/10/27 02:55:18;;;;;;;;;;;;;;;20.36;60.62;98929.09;5020725;28;2717;-79
2023/10/27 02:57:45;;;;;;;;;;;;;;;20.35;60.57;98930.53;5022275;28;2240;-80
2023/10/27 03:00:11;;;;;;;;;;;;;;;20.35;60.59;98924.78;5023297;28;6247;-80
2023/10/27 03:02:37;;;;;;;;;;;;;;;20.36;60.63;98934.84;5021067;28;2201;-80
2023/10/27 03:05:04;;;;;;;;;;;;;;;20.38;60.86;98934.16;5020894;28;2308;-80
2023/10/27 03:07:30;;;;;;;;;;;;;;;20.38;60.78;98934.88;5021618;28;2287;-80
2023/10/27 03:09:57;;;;;;;;;;;;;;;20.38;60.65;98934.16;5020564;28;2287;-80
2023/10/27 03:12:23;;;;;;;;;;;;;;;20.40;60.45;98937.78;5021002;28;2290;-80
2023/10/27 03:14:50;;;;;;;;;;;;;;;20.38;60.57;98929.13;5021667;28;2394;-80
2023/10/27 03:17:16;;;;;;;;;;;;;;;20.38;60.71;98929.13;5020360;28;1805;-80
2023/10/27 03:19:43;;;;;;;;;;;;;;;20.37;60.66;98927.69;5021704;28;2337;-80
2023/10/27 03:22:09;;;;;;;;;;;;;;;20.39;60.43;98913.34;5019744;28;2356;-80
2023/10/27 03:24:36;;;;;;;;;;;;;;;20.41;60.58;98922.00;5023211;28;2074;-80
2023/10/27 03:27:02;;;;;;;;;;;;;;;20.40;60.69;98920.53;5022248;28;2268;-80
2023/10/27 03:29:29;;;;;;;;;;;;;;;20.41;60.59;98927.00;5022004;28;2286;-80
2023/10/27 03:31:55;;;;;;;;;;;;;;;20.39;60.66;98924.84;5023940;28;7371;-80
2023/10/27 03:34:21;;;;;;;;;;;;;;;20.39;60.83;98919.09;5041904;28;2293;-80
2023/10/27 03:36:48;;;;;;;;;;;;;;;20.39;60.45;98919.09;5044776;28;2271;-80
2023/10/27 03:39:14;;;;;;;;;;;;;;;20.40;60.78;98923.41;5027985;28;2248;-80
2023/10/27 03:41:41;;;;;;;;;;;;;;;20.40;60.53;98926.28;5024719;28;2381;-80
2023/10/27 03:44:09;;;;;;;;;;;;;;;20.38;60.78;98917.63;5040197;28;1806;-80
2023/10/27 03:46:36;;;;;;;;;;;;;;;20.39;60.68;98924.84;5040415;28;2337;-80
2023/10/27 03:49:02;;;;;;;;;;;;;;;20.40;60.92;98914.78;5040917;28;2410;-80
2023/10/27 03:51:29;;;;;;;;;;;;;;;20.38;60.92;98917.63;5040669;28;2278;-80
2023/10/27 03:53:55;;;;;;;;;;;;;;;20.39;60.49;98910.47;5042456;28;2269;-80
2023/10/27 03:56:22;;;;;;;;;;;;;;;20.39;60.77;98912.63;5041628;28;2317;-80
2023/10/27 03:58:48;;;;;;;;;;;;;;;20.39;60.63;98912.63;5041672;28;2582;-80
2023/10/27 04:01:15;;;;;;;;;;;;;;;20.38;60.57;98908.28;5039666;28;6167;-80
2023/10/27 04:03:42;;;;;;;;;;;;;;;20.37;60.77;98910.44;5023569;28;2307;-80
2023/10/27 04:06:08;;;;;;;;;;;;;;;20.38;60.70;98905.41;5041613;28;2346;-80
2023/10/27 04:08:34;;;;;;;;;;;;;;;20.36;60.93;98897.47;5024700;28;2346;-80
2023/10/27 04:11:01;;;;;;;;;;;;;;;20.38;60.75;98900.38;5042287;28;2281;-79
2023/10/27 04:13:27;;;;;;;;;;;;;;;20.38;60.59;98909.00;5039906;28;2377;-80
2023/10/27 04:15:54;;;;;;;;;;;;;;;20.38;60.63;98905.41;5025255;28;2345;-79
2023/10/27 04:18:20;;;;;;;;;;;;;;;20.38;60.84;98906.13;5043037;28;1961;-80
2023/10/27 04:20:46;;;;;;;;;;;;;;;20.36;60.78;98908.25;5040918;28;1614;-80
2023/10/27 04:23:13;;;;;;;;;;;;;;;20.36;60.91;98902.50;5040506;28;2527;-80
2023/10/27 04:25:40;;;;;;;;;;;;;;;20.35;60.80;98907.53;5040782;28;2192;-80
2023/10/27 04:28:06;;;;;;;;;;;;;;;20.38;60.86;98911.16;5040460;28;2329;-81
2023/10/27 04:30:33;;;;;;;;;;;;;;;20.39;60.67;98901.84;5039429;28;6281;-80
2023/10/27 04:32:59;;;;;;;;;;;;;;;20.47;61.10;98898.38;5037780;28;2524;-86
2023/10/27 04:35:26;;;;;;;;;;;;;;;20.70;61.19;98893.69;5019157;28;3629;-80
2023/10/27 04:37:53;;;;;;;;;;;;;;;20.54;60.71;98899.19;5036326;28;2387;-84
2023/10/27 04:40:19;;;;;;;;;;;;;;;20.64;60.68;98894.34;5046450;28;2462;-82
2023/10/27 04:42:46;;;;;;;;;;;;;;;20.60;60.48;98893.56;5040316;28;2501;-76
2023/10/27 04:45:12;;;;;;;;;;;;;;;20.59;60.45;98897.84;5038670;28;2484;-75
2023/10/27 04:47:39;;;;;;;;;;;;;;;20.60;60.39;98890.69;5036549;28;2415;-80
2023/10/27 04:50:06;;;;;;;;;;;;;;;20.69;60.79;98889.38;5045108;28;2337;-80
2023/10/27 04:52:33;;;;;;;;;;;;;;;20.69;60.37;98892.25;5045388;28;2808;-77
2023/10/27 04:55:00;;;;;;;;;;;;;;;20.62;60.48;98885.69;5037186;28;2693;-77
2023/10/27 04:57:26;;;;;;;;;;;;;;;20.58;60.21;98879.88;5036922;28;2578;-76
2023/10/27 04:59:53;;;;;;;;;;;;;;;20.55;60.40;98884.13;5037601;28;2488;-79
2023/10/27 05:02:19;;;;;;;;;;;;;;;20.59;60.48;98878.44;5036217;28;6335;-78
2023/10/27 05:04:46;;;;;;;;;;;;;;;20.53;60.50;98883.38;5019703;28;2478;-78
2023/10/27 05:07:13;;;;;;;;;;;;;;;20.54;60.74;98884.81;5018781;28;2584;-78
2023/10/27 05:09:39;;;;;;;;;;;;;;;20.50;60.67;98883.34;5035731;28;2424;-80
2023/10/27 05:12:06;;;;;;;;;;;;;;;20.50;60.65;98883.34;5036946;28;2463;-78
2023/10/27 05:14:34;;;;;;;;;;;;;;;20.57;60.39;98883.44;5037764;28;2336;-80
2023/10/27 05:17:00;;;;;;;;;;;;;;;20.60;60.41;98876.31;5040928;28;2434;-80
2023/10/27 05:19:27;;;;;;;;;;;;;;;20.54;60.73;98879.06;5041202;28;1765;-80
2023/10/27 05:21:53;;;;;;;;;;;;;;;20.58;60.41;98879.88;5039721;28;2336;-80
2023/10/27 05:24:19;;;;;;;;;;;;;;;20.64;60.22;98879.22;5039346;28;2182;-80
2023/10/27 05:26:46;;;;;;;;;;;;;;;20.66;60.34;98876.38;5039724;28;2343;-80
2023/10/27 05:29:12;;;;;;;;;;;;;;;20.64;60.29;98879.22;5037788;28;2555;-80
2023/10/27 05:31:40;;;;;;;;;;;;;;;20.67;59.96;98881.44;5038546;28;6034;-80
2023/10/27 05:34:06;;;;;;;;;;;;;;;20.60;60.21;98888.53;5037012;28;2238;-79
2023/10/27 05:36:33;;;;;;;;;;;;;;;20.51;60.32;98884.78;5035194;28;2708;-79
2023/10/27 05:38:59;;;;;;;;;;;;;;;20.34;60.92;98883.09;5039344;28;2423;-85
2023/10/27 05:41:25;;;;;;;;;;;;;;;20.54;62.75;98876.19;5037221;28;2571;-86
2023/10/27 05:43:54;;;;;;;;;;;;;;;20.81;61.48;98877.28;5039014;28;2407;-83
2023/10/27 05:46:21;;;;;;;;;;;;;;;20.88;59.47;98878.81;5041584;28;2069;-84
2023/10/27 05:48:47;;;;;;;;;;;;;;;21.01;59.30;98877.56;5024507;28;2386;-84
2023/10/27 05:51:15;;;;;;;;;;;;;;;21.08;58.66;98879.06;5037231;28;2378;-83
2023/10/27 05:53:41;;;;;;;;;;;;;;;21.14;57.85;98881.28;5022565;28;2748;-85
2023/10/27 05:56:08;;;;;;;;;;;;;;;20.76;57.20;98882.28;5036705;28;2418;-84
2023/10/27 05:58:34;;;;;;;;;;;;;;;20.70;57.57;98890.81;5023222;28;2402;-84
2023/10/27 06:01:01;;;;;;;;;;;;;;;20.59;58.23;98883.47;5037060;28;6187;-84
2023/10/27 06:03:27;;;;;;;;;;;;;;;20.60;58.67;98884.94;5037668;28;2491;-83
2023/10/27 06:05:54;;;;;;;;;;;;;;;20.61;58.94;98883.50;5042795;28;2718;-85
2023/10/27 06:08:20;;;;;;;;;;;;;;;20.61;59.38;98883.50;5045701;28;2305;-84
2023/10/27 06:10:47;;;;;;;;;;;;;;;20.62;59.32;98891.44;5043369;28;2475;-84
2023/10/27 06:13:14;;;;;;;;;;;;;;;20.62;59.63;98887.84;5041953;28;2388;-84
2023/10/27 06:15:40;;;;;;;;;;;;;;;20.63;59.26;98889.28;5043217;28;2299;-84
2023/10/27 06:18:10;;;;;;;;;;;;;;;20.64;59.52;98885.72;5039440;28;2403;-83
2023/10/27 06:20:37;;;;;;;;;;;;;;;20.63;59.62;98890.00;5043465;28;2125;-84
2023/10/27 06:23:04;;;;;;;;;;;;;;;20.64;59.69;98890.75;5025692;28;2528;-84
2023/10/27 06:25:30;;;;;;;;;;;;;;;20.64;59.80;98893.63;5041322;28;2861;-84
2023/10/27 06:27:56;;;;;;;;;;;;;;;20.64;59.99;98890.75;5041209;28;2485;-84
2023/10/27 06:30:23;;;;;;;;;;;;;;;20.65;59.71;98898.66;5041347;28;6641;-84
2023/10/27 06:32:49;;;;;;;;;;;;;;;20.70;60.11;98910.94;5043293;28;2412;-82
2023/10/27 06:35:16;;;;;;;;;;;;;;;20.97;59.89;98908.41;5038243;28;2440;-82
2023/10/27 06:37:42;;;;;;;;;;;;;;;21.11;59.75;98912.19;5044969;28;2498;-83
2023/10/27 06:40:08;;;;;;;;;;;;;;;21.21;59.26;98917.38;5047909;28;2349;-86
2023/10/27 06:42:35;;;;;;;;;;;;;;;21.22;59.35;98915.91;5032565;28;2445;-87
2023/10/27 06:45:03;;;;;;;;;;;;;;;21.22;59.27;98915.91;5047631;28;2555;-85
2023/10/27 06:47:30;;;;;;;;;;;;;;;21.23;59.14;98920.25;5047563;28;2462;-86
2023/10/27 06:49:56;;;;;;;;;;;;;;;21.23;59.34;98923.13;5045319;28;2428;-80
2023/10/27 06:52:23;;;;;;;;;;;;;;;21.40;59.23;98923.34;5040399;28;2419;-80
2023/10/27 06:54:49;;;;;;;;;;;;;;;21.44;59.00;98923.38;5042349;28;2509;-80
2023/10/27 06:57:15;;;;;;;;;;;;;;;21.53;58.84;98931.44;5041345;28;2354;-81
2023/10/27 06:59:42;;;;;;;;;;;;;;;21.47;58.67;98936.38;5043829;28;2388;-81
2023/10/27 07:02:08;;;;;;;;;;;;;;;21.61;58.60;98932.94;5038279;28;6326;-81
2023/10/27 07:04:35;;;;;;;;;;;;;;;21.65;58.39;98933.00;5042540;28;2397;-82
2023/10/27 07:07:05;;;;;;;;;;;;;;;21.68;58.16;98932.28;5041030;28;2372;-83
2023/10/27 07:09:47;;;;;;;;;;;;;;;21.64;58.02;98934.41;5041652;28;2456;-84
2023/10/27 07:12:14;;;;;;;;;;;;;;;21.45;58.29;98939.25;5042776;28;2522;-82
2023/10/27 07:14:40;;;;;;;;;;;;;;;21.16;59.05;98941.75;5044192;28;2488;-85
2023/10/27 07:17:07;;;;;;;;;;;;;;;21.28;59.48;98941.91;5044763;28;2564;-84
2023/10/27 07:19:33;;;;;;;;;;;;;;;21.47;59.24;98945.75;5043646;28;2436;-83
2023/10/27 07:22:00;;;;;;;;;;;;;;;21.51;58.92;98942.19;5042101;28;2495;-86
2023/10/27 07:24:32;;;;;;;;;;;;;;;21.34;58.82;98939.09;5042645;28;2492;-88
2023/10/27 07:26:58;;;;;;;;;;;;;;;21.21;59.61;98936.75;5043400;28;2479;-92
2023/10/27 07:29:25;;;;;;;;;;;;;;;21.24;59.21;98936.09;5023584;28;2646;-83
2023/10/27 07:31:53;;;;;;;;;;;;;;;21.44;59.25;98941.41;5042523;28;6029;-88
2023/10/27 07:34:20;;;;;;;;;;;;;;;21.52;58.83;98943.66;5040988;28;2403;-88
2023/10/27 07:36:46;;;;;;;;;;;;;;;21.51;58.56;98936.44;5043481;28;2444;-88
2023/10/27 07:39:14;;;;;;;;;;;;;;;21.50;58.71;98934.97;5040959;28;2400;-86
2023/10/27 07:41:41;;;;;;;;;;;;;;;21.54;58.50;98937.91;5043462;28;2474;-88
2023/10/27 07:44:07;;;;;;;;;;;;;;;21.61;58.29;98935.81;5042092;28;2538;-88
2023/10/27 07:46:34;;;;;;;;;;;;;;;21.62;58.19;98935.09;5025157;28;2412;-87
2023/10/27 07:49:00;;;;;;;;;;;;;;;21.55;58.97;98933.59;5039253;28;2400;-88
2023/10/27 07:51:27;;;;;;;;;;;;;;;21.52;58.42;98935.00;5026880;28;2514;-89
2023/10/27 07:53:54;;;;;;;;;;;;;;;21.59;58.65;98932.91;5042351;28;2475;-90
2023/10/27 07:56:20;;;;;;;;;;;;;;;21.64;58.52;98940.88;5042625;28;2395;-88
2023/10/27 07:58:46;;;;;;;;;;;;;;;21.66;58.16;98932.25;5041928;28;2388;-88
2023/10/27 08:01:13;;;;;;;;;;;;;;;21.48;58.38;98934.94;5042110;28;6212;-89
2023/10/27 08:03:39;;;;;;;;;;;;;;;21.26;59.11;98927.50;5026374;28;2313;-86
2023/10/27 08:06:09;;;;;;;;;;;;;;;21.38;59.19;98931.94;5023252;28;2393;-84
2023/10/27 08:08:37;;;;;;;;;;;;;;;21.41;59.07;98930.56;5040505;28;2464;-83
2023/10/27 08:11:07;;;;;;;;;;;;;;;21.46;59.03;98926.28;5043890;28;2384;-83
2023/10/27 08:13:33;;;;;;;;;;;;;;;21.25;58.99;98926.03;5039880;28;2420;-85
2023/10/27 08:16:00;;;;;;;;;;;;;;;21.57;59.61;98922.09;5040969;28;2415;-83
2023/10/27 08:18:26;;;;;;;;;;;;;;;21.74;58.86;98912.19;5034978;28;2396;-83
2023/10/27 08:20:54;;;;;;;;;;;;;;;21.89;58.19;98918.09;5041168;28;2436;-82
2023/10/27 08:23:20;;;;;;;;;;;;;;;21.94;57.83;98913.81;5042664;28;2391;-83
2023/10/27 08:25:53;;;;;;;;;;;;;;;21.96;57.89;98917.44;5041604;28;2420;-86
2023/10/27 08:28:19;;;;;;;;;;;;;;;21.40;58.58;98912.56;5026884;28;2224;-85
2023/10/27 08:30:46;;;;;;;;;;;;;;;21.39;59.14;98916.09;5025533;28;6139;-92
2023/10/27 08:33:14;;;;;;;;;;;;;;;21.74;58.39;98912.19;5049811;28;2572;-93
2023/10/27 08:35:41;;;;;;;;;;;;;;;21.86;57.92;98916.63;5046144;28;2298;-86
2023/10/27 08:38:07;;;;;;;;;;;;;;;21.88;57.73;98922.41;5041938;28;2369;-89
2023/10/27 08:40:34;;;;;;;;;;;;;;;21.81;57.44;98923.78;5026536;28;2504;-91
2023/10/27 08:43:00;;;;;;;;;;;;;;;21.62;58.17;98925.75;5048792;28;2749;-90
2023/10/27 08:45:27;;;;;;;;;;;;;;;21.36;59.04;98929.75;5029397;28;2386;-91
2023/10/27 08:47:54;;;;;;;;;;;;;;;21.23;59.54;98931.75;5045891;28;2440;-82
2023/10/27 08:50:21;;;;;;;;;;;;;;;21.26;59.42;98933.25;5040518;28;2433;-80
2023/10/27 08:52:48;;;;;;;;;;;;;;;21.21;59.57;98928.13;5039472;28;2495;-80
2023/10/27 08:55:15;;;;;;;;;;;;;;;21.37;59.21;98921.84;5038728;28;2447;-86
2023/10/27 08:57:41;;;;;;;;;;;;;;;21.16;59.18;98930.22;5008337;28;2471;-81
2023/10/27 09:00:08;;;;;;;;;;;;;;;21.00;58.88;98924.28;5019928;28;6125;-85
2023/10/27 09:02:35;;;;;;;;;;;;;;;21.42;58.27;98923.38;5040518;28;2468;-85
2023/10/27 09:05:03;;;;;;;;;;;;;;;21.53;58.28;98919.91;5018510;28;2472;-84
2023/10/27 09:07:30;;;;;;;;;;;;;;;21.64;57.78;98923.59;5038219;28;2412;-85
2023/10/27 09:09:58;;;;;;;;;;;;;;;21.61;57.69;98925.03;5007424;28;2588;-86
2023/10/27 09:12:26;;;;;;;;;;;;;;;21.39;58.58;98922.59;5036736;28;2364;-87
2023/10/27 09:14:57;;;;;;;;;;;;;;;21.27;58.85;98917.41;5024898;28;2616;-87
2023/10/27 09:17:23;;;;;;;;;;;;;;;21.36;58.84;98908.88;5023590;28;2620;-90
2023/10/27 09:20:01;;;;;;;;;;;;;;;21.23;58.78;98914.47;5044165;28;2196;-89
2023/10/27 09:22:27;;;;;;;;;;;;;;;21.31;58.69;98917.47;5041606;28;2350;-89
2023/10/27 09:25:13;;;;;;;;;;;;;;;21.30;58.99;98921.78;5040167;28;2295;-88
2023/10/27 09:27:44;;;;;;;;;;;;;;;21.33;58.89;98922.53;5037563;28;2446;-86
2023/10/27 09:30:12;;;;;;;;;;;;;;;21.26;58.81;98924.63;5042422;28;6215;-90
2023/10/27 09:32:40;;;;;;;;;;;;;;;21.49;58.98;98919.13;5039173;28;2102;-87
2023/10/27 09:35:08;;;;;;;;;;;;;;;21.42;58.60;98920.50;5022242;28;2416;-88
2023/10/27 09:37:34;;;;;;;;;;;;;;;21.20;59.47;98926.69;5040897;28;2446;-86
2023/10/27 09:40:01;;;;;;;;;;;;;;;21.32;58.88;98923.94;5051880;28;2582;-90
2023/10/27 09:42:27;;;;;;;;;;;;;;;21.41;59.19;98921.91;5047410;28;2564;-85
2023/10/27 09:44:57;;;;;;;;;;;;;;;21.48;58.83;98929.91;5011047;28;2533;-81
2023/10/27 09:47:28;;;;;;;;;;;;;;;21.58;58.26;98925.69;5028312;28;2381;-85
2023/10/27 09:49:57;;;;;;;;;;;;;;;21.47;58.51;98933.50;5032188;28;2531;-90
2023/10/27 09:52:23;;;;;;;;;;;;;;;21.24;58.90;98936.09;5046151;28;2469;-87
2023/10/27 09:54:51;;;;;;;;;;;;;;;21.15;59.55;98928.06;5028061;28;2432;-87
2023/10/27 09:57:25;;;;;;;;;;;;;;;21.09;59.99;98940.22;5041345;28;2458;-80
2023/10/27 09:59:52;;;;;;;;;;;;;;;21.10;59.90;98933.06;5044523;28;2598;-90
2023/10/27 10:02:18;;;;;;;;;;;;;;;21.08;59.78;98927.25;5045849;28;6500;-92
2023/10/27 10:04:51;;;;;;;;;;;;;;;21.13;59.87;98925.88;5032411;28;2575;-89
2023/10/27 10:07:27;;;;;;;;;;;;;;;21.12;59.86;98910.06;5046593;28;1615;-89
2023/10/27 10:09:53;;;;;;;;;;;;;;;21.40;59.91;98914.69;5041699;28;2411;-89
2023/10/27 10:12:19;;;;;;;;;;;;;;;21.69;58.93;98907.09;5041782;28;2408;-92
2023/10/27 10:14:48;;;;;;;;;;;;;;;21.73;58.82;98907.84;5050409;28;2289;-92
2023/10/27 10:17:33;;;;;;;;;;;;;;;21.73;58.72;98912.91;5052288;28;2436;-91
2023/10/27 10:19:59;;;;;;;;;;;;;;;21.63;58.81;98910.66;5048994;28;2318;-89
2023/10/27 10:22:38;;;;;;;;;;;;;;;21.57;58.90;98907.69;5050060;28;2395;-87
2023/10/27 10:25:23;;;;;;;;;;;;;;;21.49;59.59;98907.63;5043177;28;2446;-90
2023/10/27 10:28:08;;;;;;;;;;;;;;;21.56;59.25;98900.50;5043768;28;2352;-80
2023/10/27 10:30:38;;;;;;;;;;;;;;;21.60;59.08;98906.31;5046197;28;6039;-87
2023/10/27 10:33:11;;;;;;;;;;;;;;;21.44;59.46;98911.88;5026245;28;2630;-89
2023/10/27 10:35:38;;;;;;;;;;;;;;;21.53;60.02;98901.88;5042058;28;2458;-86
2023/10/27 10:38:24;;;;;;;;;;;;;;;21.73;59.07;98901.38;5026455;28;2448;-89
2023/10/27 10:40:54;;;;;;;;;;;;;;;21.53;59.07;98905.50;5044861;28;2410;-86
2023/10/27 10:43:24;;;;;;;;;;;;;;;21.40;59.56;98906.06;5040378;28;2602;-82
2023/10/27 10:45:53;;;;;;;;;;;;;;;21.37;60.22;98907.44;5037343;28;2453;-83
2023/10/27 10:48:20;;;;;;;;;;;;;;;21.52;59.66;98903.31;5026703;28;2445;-83
2023/10/27 10:50:50;;;;;;;;;;;;;;;21.55;59.46;98904.78;5025045;28;2399;-83
2023/10/27 10:53:17;;;;;;;;;;;;;;;21.56;59.60;98912.00;5041455;28;2395;-82
2023/10/27 10:55:44;;;;;;;;;;;;;;;21.50;60.01;98906.19;5040948;28;2396;-86
2023/10/27 10:58:31;;;;;;;;;;;;;;;21.48;60.00;98909.03;5043992;28;2399;-84
2023/10/27 11:00:58;;;;;;;;;;;;;;;21.54;60.04;98914.88;5041185;28;6272;-78
2023/10/27 11:03:27;;;;;;;;;;;;;;;21.48;59.91;98906.16;5039475;28;2497;-79
2023/10/27 11:06:01;;;;;;;;;;;;;;;21.45;59.58;98902.53;5043461;28;2483;-80
2023/10/27 11:08:31;;;;;;;;;;;;;;;21.36;60.20;98909.59;5041406;28;2587;-81
2023/10/27 11:11:02;;;;;;;;;;;;;;;21.31;60.41;98908.13;5039915;28;2661;-83
2023/10/27 11:13:29;;;;;;;;;;;;;;;21.36;60.21;98911.75;5042090;28;2595;-79
2023/10/27 11:15:55;;;;;;;;;;;;;;;21.40;60.72;98906.81;5042369;28;2383;-81
2023/10/27 11:18:25;;;;;;;;;;;;;;;21.39;60.22;98910.34;5043343;28;2227;-76
2023/10/27 11:20:52;;;;;;;;;;;;;;;21.45;60.06;98908.28;5041654;28;2278;-77
2023/10/27 11:23:18;;;;;;;;;;;;;;;21.52;59.62;98911.97;5029437;28;1648;-77
2023/10/27 11:25:45;;;;;;;;;;;;;;;21.38;59.89;98906.75;5042068;28;2451;-79
2023/10/27 11:28:17;;;;;;;;;;;;;;;21.39;59.77;98910.34;5043818;28;2379;-80
2023/10/27 11:30:55;;;;;;;;;;;;;;;21.30;60.34;98910.28;5042648;28;6055;-85
2023/10/27 11:33:21;;;;;;;;;;;;;;;21.28;60.27;98910.25;5048369;28;1683;-83
2023/10/27 11:35:48;;;;;;;;;;;;;;;21.41;60.76;98907.53;5045235;28;2087;-83
2023/10/27 11:38:15;;;;;;;;;;;;;;;21.56;60.32;98906.25;5036516;28;2406;-82
2023/10/27 11:40:41;;;;;;;;;;;;;;;21.74;60.02;98915.06;5042881;28;2407;-84
2023/10/27 11:43:07;;;;;;;;;;;;;;;21.74;60.11;98909.31;5040589;28;2503;-83
2023/10/27 11:45:34;;;;;;;;;;;;;;;21.63;59.70;98907.03;5040844;28;2393;-82
2023/10/27 11:48:00;;;;;;;;;;;;;;;21.29;61.01;98908.81;5027283;28;2390;-90
2023/10/27 11:50:27;;;;;;;;;;;;;;;21.19;61.71;98911.59;5024773;28;2630;-91
2023/10/27 11:52:54;;;;;;;;;;;;;;;21.25;61.43;98903.00;5043472;28;2395;-83
2023/10/27 11:55:20;;;;;;;;;;;;;;;21.40;61.15;98906.06;5041275;28;2551;-76
2023/10/27 11:57:47;;;;;;;;;;;;;;;21.27;61.23;98900.16;5039944;28;2501;-81
2023/10/27 12:00:13;;;;;;;;;;;;;;;21.18;60.37;98904.34;5040526;28;6246;-81
2023/10/27 12:02:40;;;;;;;;;;;;;;;21.42;60.42;98909.00;5042133;28;1918;-79
2023/10/27 12:05:06;;;;;;;;;;;;;;;21.37;60.20;98902.41;5042032;28;2507;-81
2023/10/27 12:07:36;;;;;;;;;;;;;;;20.91;60.14;98912.69;5043789;28;2709;-79
2023/10/27 12:10:03;;;;;;;;;;;;;;;21.08;60.08;98912.88;5040991;28;2589;-80
2023/10/27 12:12:29;;;;;;;;;;;;;;;21.21;61.14;98902.97;5043109;28;2585;-79
2023/10/27 12:14:56;;;;;;;;;;;;;;;21.38;60.80;98903.88;5041611;28;2518;-80
2023/10/27 12:17:23;;;;;;;;;;;;;;;21.23;61.04;98910.88;5045141;28;2502;-85
2023/10/27 12:19:50;;;;;;;;;;;;;;;21.19;60.78;98911.59;5044785;28;2455;-80
2023/10/27 12:22:16;;;;;;;;;;;;;;;21.11;61.61;98908.59;5024476;28;2476;-81
2023/10/27 12:24:43;;;;;;;;;;;;;;;20.99;61.79;98908.44;5044237;28;2489;-80
2023/10/27 12:27:10;;;;;;;;;;;;;;;21.12;61.66;98905.03;5041458;28;2439;-80
2023/10/27 12:29:36;;;;;;;;;;;;;;;21.34;61.25;98913.19;5036338;28;2538;-80
2023/10/27 12:32:03;;;;;;;;;;;;;;;21.33;61.16;98917.50;5039309;28;6073;-78
2023/10/27 12:34:30;;;;;;;;;;;;;;;21.25;60.40;98914.50;5034551;28;2463;-78
2023/10/27 12:36:56;;;;;;;;;;;;;;;21.19;61.42;98914.47;5037576;28;2567;-77
2023/10/27 12:39:23;;;;;;;;;;;;;;;21.16;61.46;98918.00;5041773;28;2509;-77
2023/10/27 12:41:51;;;;;;;;;;;;;;;21.11;61.64;98912.19;5022785;28;2473;-78
2023/10/27 12:44:17;;;;;;;;;;;;;;;21.12;61.57;98907.91;5039774;28;2455;-78
2023/10/27 12:46:46;;;;;;;;;;;;;;;21.15;61.70;98907.94;5041457;28;2404;-77
2023/10/27 12:49:12;;;;;;;;;;;;;;;21.21;61.47;98908.72;5042521;28;1785;-78
2023/10/27 12:51:39;;;;;;;;;;;;;;;21.21;61.17;98908.72;5038630;28;2712;-81
2023/10/27 12:54:05;;;;;;;;;;;;;;;21.24;62.03;98910.19;5041316;28;2677;-78
2023/10/27 12:56:32;;;;;;;;;;;;;;;21.52;61.22;98906.94;5040228;28;2548;-78
2023/10/27 12:58:58;;;;;;;;;;;;;;;21.70;60.72;98909.28;5041576;28;2385;-78